sensor_id;sensor_type;location;lat;lon;timestamp;temperature;humidity
27619;DHT22;15039;50.830;4.730;2024-03-02T00:00:42;7.60;99.90
27619;DHT22;15039;50.830;4.730;2024-03-02T00:03:07;7.60;99.90
27619;DHT22;15039;50.830;4.730;2024-03-02T00:05:34;7.60;99.90
27619;DHT22;15039;50.830;4.730;2024-03-02T00:10:39;7.60;99.90
27619;DHT22;15039;50.830;4.730;2024-03-02T01:13:36;7.40;99.90
27619;DHT22;15039;50.830;4.730;2024-03-02T01:16:02;7.40;99.90
27619;DHT22;15039;50.830;4.730;2024-03-02T01:18:28;7.40;99.90
27619;DHT22;15039;50.830;4.730;2024-03-02T01:20:53;7.30;99.90
27619;DHT22;15039;50.830;4.730;2024-03-02T01:23:21;7.30;99.90
27619;DHT22;15039;50.830;4.730;2024-03-02T01:25:47;7.30;99.90
27619;DHT22;15039;50.830;4.730;2024-03-02T01:28:13;7.30;99.90
27619;DHT22;15039;50.830;4.730;2024-03-02T01:30:39;7.30;99.90
27619;DHT22;15039;50.830;4.730;2024-03-02T01:33:04;7.40;99.90
27619;DHT22;15039;50.830;4.730;2024-03-02T01:35:31;7.30;99.90
27619;DHT22;15039;50.830;4.730;2024-03-02T01:37:56;7.40;99.90
27619;DHT22;15039;50.830;4.730;2024-03-02T01:40:22;7.30;99.90
27619;DHT22;15039;50.830;4.730;2024-03-02T01:42:51;7.30;99.90
27619;DHT22;15039;50.830;4.730;2024-03-02T01:45:17;7.30;99.90
27619;DHT22;15039;50.830;4.730;2024-03-02T02:39:30;7.30;99.90
27619;DHT22;15039;50.830;4.730;2024-03-02T02:41:55;7.30;99.90
27619;DHT22;15039;50.830;4.730;2024-03-02T02:44:21;7.30;99.90
27619;DHT22;15039;50.830;4.730;2024-03-02T02:46:46;7.20;99.90
27619;DHT22;15039;50.830;4.730;2024-03-02T02:49:12;7.20;99.90
27619;DHT22;15039;50.830;4.730;2024-03-02T02:51:41;7.20;99.90
27619;DHT22;15039;50.830;4.730;2024-03-02T02:54:06;7.10;99.90
27619;DHT22;15039;50.830;4.730;2024-03-02T02:56:32;7.00;99.90
27619;DHT22;15039;50.830;4.730;2024-03-02T03:11:54;6.90;99.90
27619;DHT22;15039;50.830;4.730;2024-03-02T03:14:19;6.80;99.90
27619;DHT22;15039;50.830;4.730;2024-03-02T03:16:46;6.70;99.90
27619;DHT22;15039;50.830;4.730;2024-03-02T03:19:13;6.70;99.90
27619;DHT22;15039;50.830;4.730;2024-03-02T03:21:39;6.70;99.90
27619;DHT22;15039;50.830;4.730;2024-03-02T03:24:06;6.70;99.90
27619;DHT22;15039;50.830;4.730;2024-03-02T03:26:32;6.70;99.90
27619;DHT22;15039;50.830;4.730;2024-03-02T03:29:00;6.70;99.90
27619;DHT22;15039;50.830;4.730;2024-03-02T03:31:28;6.70;99.90
27619;DHT22;15039;50.830;4.730;2024-03-02T03:33:53;6.60;99.90
27619;DHT22;15039;50.830;4.730;2024-03-02T03:36:19;6.50;99.90
27619;DHT22;15039;50.830;4.730;2024-03-02T03:38:44;6.50;99.90
27619;DHT22;15039;50.830;4.730;2024-03-02T03:41:10;6.50;99.90
27619;DHT22;15039;50.830;4.730;2024-03-02T03:43:35;6.60;99.90
27619;DHT22;15039;50.830;4.730;2024-03-02T03:46:01;6.60;99.90
27619;DHT22;15039;50.830;4.730;2024-03-02T03:48:27;6.50;99.90
27619;DHT22;15039;50.830;4.730;2024-03-02T03:50:56;6.50;99.90
27619;DHT22;15039;50.830;4.730;2024-03-02T03:53:21;6.50;99.90
27619;DHT22;15039;50.830;4.730;2024-03-02T03:55:47;6.40;99.90
27619;DHT22;15039;50.830;4.730;2024-03-02T03:58:15;6.40;99.90
27619;DHT22;15039;50.830;4.730;2024-03-02T04:00:46;6.40;99.90
27619;DHT22;15039;50.830;4.730;2024-03-02T04:03:13;6.40;99.90
27619;DHT22;15039;50.830;4.730;2024-03-02T04:05:38;6.30;99.90
27619;DHT22;15039;50.830;4.730;2024-03-02T04:08:04;6.30;99.90
27619;DHT22;15039;50.830;4.730;2024-03-02T04:10:30;6.30;99.90
27619;DHT22;15039;50.830;4.730;2024-03-02T04:12:55;6.40;99.90
27619;DHT22;15039;50.830;4.730;2024-03-02T04:15:21;6.30;99.90
27619;DHT22;15039;50.830;4.730;2024-03-02T04:17:48;6.30;99.90
27619;DHT22;15039;50.830;4.730;2024-03-02T04:20:14;6.30;99.90
27619;DHT22;15039;50.830;4.730;2024-03-02T04:22:48;6.30;99.90
27619;DHT22;15039;50.830;4.730;2024-03-02T04:25:14;6.30;99.90
27619;DHT22;15039;50.830;4.730;2024-03-02T04:27:39;6.30;99.90
27619;DHT22;15039;50.830;4.730;2024-03-02T04:30:06;6.40;99.90
27619;DHT22;15039;50.830;4.730;2024-03-02T04:32:32;6.30;99.90
27619;DHT22;15039;50.830;4.730;2024-03-02T04:35:01;6.20;99.90
27619;DHT22;15039;50.830;4.730;2024-03-02T05:17:27;6.10;99.90
27619;DHT22;15039;50.830;4.730;2024-03-02T05:45:39;6.20;99.90
27619;DHT22;15039;50.830;4.730;2024-03-02T05:48:06;6.20;99.90
27619;DHT22;15039;50.830;4.730;2024-03-02T05:50:32;6.10;99.90
27619;DHT22;15039;50.830;4.730;2024-03-02T05:52:58;6.10;99.90
27619;DHT22;15039;50.830;4.730;2024-03-02T05:55:24;6.10;99.90
27619;DHT22;15039;50.830;4.730;2024-03-02T06:03:00;6.10;99.90
27619;DHT22;15039;50.830;4.730;2024-03-02T06:05:26;6.10;99.90
27619;DHT22;15039;50.830;4.730;2024-03-02T06:25:59;6.10;99.90
27619;DHT22;15039;50.830;4.730;2024-03-02T06:28:24;6.00;99.90
27619;DHT22;15039;50.830;4.730;2024-03-02T06:30:50;6.10;99.90
27619;DHT22;15039;50.830;4.730;2024-03-02T06:33:15;6.10;99.90
27619;DHT22;15039;50.830;4.730;2024-03-02T06:35:42;6.00;99.90
27619;DHT22;15039;50.830;4.730;2024-03-02T06:58:50;6.10;99.90
27619;DHT22;15039;50.830;4.730;2024-03-02T07:01:15;6.10;99.90
27619;DHT22;15039;50.830;4.730;2024-03-02T07:03:41;6.10;99.90
27619;DHT22;15039;50.830;4.730;2024-03-02T07:06:09;6.20;99.90
27619;DHT22;15039;50.830;4.730;2024-03-02T07:16:21;6.30;99.90
27619;DHT22;15039;50.830;4.730;2024-03-02T07:18:58;6.30;99.90
27619;DHT22;15039;50.830;4.730;2024-03-02T07:21:24;6.30;99.90
27619;DHT22;15039;50.830;4.730;2024-03-02T07:23:51;6.20;99.90
27619;DHT22;15039;50.830;4.730;2024-03-02T07:26:16;6.30;99.90
27619;DHT22;15039;50.830;4.730;2024-03-02T07:36:22;6.60;99.90
27619;DHT22;15039;50.830;4.730;2024-03-02T07:43:58;6.60;99.90
27619;DHT22;15039;50.830;4.730;2024-03-02T07:46:24;6.60;99.90
27619;DHT22;15039;50.830;4.730;2024-03-02T07:48:49;6.70;99.90
27619;DHT22;15039;50.830;4.730;2024-03-02T07:51:17;6.70;99.90
27619;DHT22;15039;50.830;4.730;2024-03-02T07:53:42;6.80;99.90
27619;DHT22;15039;50.830;4.730;2024-03-02T07:56:08;6.80;99.90
27619;DHT22;15039;50.830;4.730;2024-03-02T08:03:50;6.90;99.90
27619;DHT22;15039;50.830;4.730;2024-03-02T08:19:40;7.40;99.90
27619;DHT22;15039;50.830;4.730;2024-03-02T08:22:06;7.50;99.90
27619;DHT22;15039;50.830;4.730;2024-03-02T08:24:42;7.60;99.90
27619;DHT22;15039;50.830;4.730;2024-03-02T08:27:08;7.60;99.90
27619;DHT22;15039;50.830;4.730;2024-03-02T08:29:34;7.70;99.90
27619;DHT22;15039;50.830;4.730;2024-03-02T08:32:07;7.80;99.90
27619;DHT22;15039;50.830;4.730;2024-03-02T08:34:33;7.90;99.90
27619;DHT22;15039;50.830;4.730;2024-03-02T08:37:03;8.00;99.90
27619;DHT22;15039;50.830;4.730;2024-03-02T08:39:29;8.10;99.90
27619;DHT22;15039;50.830;4.730;2024-03-02T08:41:55;8.20;99.90
27619;DHT22;15039;50.830;4.730;2024-03-02T08:44:20;8.30;99.90
27619;DHT22;15039;50.830;4.730;2024-03-02T08:46:46;8.30;99.90
27619;DHT22;15039;50.830;4.730;2024-03-02T08:49:11;8.40;99.90
27619;DHT22;15039;50.830;4.730;2024-03-02T08:51:37;8.50;99.90
27619;DHT22;15039;50.830;4.730;2024-03-02T08:54:03;8.50;99.90
27619;DHT22;15039;50.830;4.730;2024-03-02T08:56:29;8.60;99.90
27619;DHT22;15039;50.830;4.730;2024-03-02T08:58:55;8.70;99.90
27619;DHT22;15039;50.830;4.730;2024-03-02T09:01:20;8.80;99.90
27619;DHT22;15039;50.830;4.730;2024-03-02T09:03:46;8.80;99.90
27619;DHT22;15039;50.830;4.730;2024-03-02T09:06:12;8.90;99.90
27619;DHT22;15039;50.830;4.730;2024-03-02T09:08:38;8.80;99.90
27619;DHT22;15039;50.830;4.730;2024-03-02T09:11:07;8.90;99.90
27619;DHT22;15039;50.830;4.730;2024-03-02T09:13:32;8.90;99.90
27619;DHT22;15039;50.830;4.730;2024-03-02T09:15:58;8.90;99.90
27619;DHT22;15039;50.830;4.730;2024-03-02T09:18:24;8.90;99.90
27619;DHT22;15039;50.830;4.730;2024-03-02T09:20:49;9.00;99.90
27619;DHT22;15039;50.830;4.730;2024-03-02T09:23:15;9.10;99.90
27619;DHT22;15039;50.830;4.730;2024-03-02T09:25:40;9.10;99.90
27619;DHT22;15039;50.830;4.730;2024-03-02T09:28:06;9.10;99.90
27619;DHT22;15039;50.830;4.730;2024-03-02T09:30:32;9.00;99.90
27619;DHT22;15039;50.830;4.730;2024-03-02T09:32:58;9.10;99.90
27619;DHT22;15039;50.830;4.730;2024-03-02T09:35:23;9.10;99.90
27619;DHT22;15039;50.830;4.730;2024-03-02T09:37:49;9.10;99.90
27619;DHT22;15039;50.830;4.730;2024-03-02T09:40:15;9.10;99.90
27619;DHT22;15039;50.830;4.730;2024-03-02T09:42:41;9.10;99.90
27619;DHT22;15039;50.830;4.730;2024-03-02T09:45:07;9.10;99.90
27619;DHT22;15039;50.830;4.730;2024-03-02T09:47:33;9.10;99.90
27619;DHT22;15039;50.830;4.730;2024-03-02T09:49:58;9.20;99.90
27619;DHT22;15039;50.830;4.730;2024-03-02T09:52:24;9.30;99.90
27619;DHT22;15039;50.830;4.730;2024-03-02T09:54:50;9.30;99.90
27619;DHT22;15039;50.830;4.730;2024-03-02T09:57:15;9.40;99.90
27619;DHT22;15039;50.830;4.730;2024-03-02T09:59:41;9.50;99.90
27619;DHT22;15039;50.830;4.730;2024-03-02T10:02:07;9.60;99.90
27619;DHT22;15039;50.830;4.730;2024-03-02T10:04:32;9.80;99.90
27619;DHT22;15039;50.830;4.730;2024-03-02T10:07:11;9.80;99.90
27619;DHT22;15039;50.830;4.730;2024-03-02T10:09:37;9.90;99.90
27619;DHT22;15039;50.830;4.730;2024-03-02T10:12:16;9.90;99.90
27619;DHT22;15039;50.830;4.730;2024-03-02T10:14:42;10.00;99.90
27619;DHT22;15039;50.830;4.730;2024-03-02T10:22:22;10.30;99.90
27619;DHT22;15039;50.830;4.730;2024-03-02T10:24:49;10.30;99.90
27619;DHT22;15039;50.830;4.730;2024-03-02T10:29:40;10.30;99.90
27619;DHT22;15039;50.830;4.730;2024-03-02T10:32:08;10.30;99.90
27619;DHT22;15039;50.830;4.730;2024-03-02T10:34:33;10.30;99.90
27619;DHT22;15039;50.830;4.730;2024-03-02T10:37:00;10.30;99.90
27619;DHT22;15039;50.830;4.730;2024-03-02T10:39:26;10.40;99.90
27619;DHT22;15039;50.830;4.730;2024-03-02T10:41:54;10.40;99.90
27619;DHT22;15039;50.830;4.730;2024-03-02T10:44:20;10.50;99.90
27619;DHT22;15039;50.830;4.730;2024-03-02T10:46:47;10.60;99.90
27619;DHT22;15039;50.830;4.730;2024-03-02T10:49:13;10.60;99.90
27619;DHT22;15039;50.830;4.730;2024-03-02T10:51:39;10.60;99.90
27619;DHT22;15039;50.830;4.730;2024-03-02T10:54:05;10.70;99.90
27619;DHT22;15039;50.830;4.730;2024-03-02T10:56:38;10.70;99.90
27619;DHT22;15039;50.830;4.730;2024-03-02T11:01:48;10.60;99.90
27619;DHT22;15039;50.830;4.730;2024-03-02T11:04:15;10.60;99.90
27619;DHT22;15039;50.830;4.730;2024-03-02T11:06:43;10.70;99.90
27619;DHT22;15039;50.830;4.730;2024-03-02T11:09:13;10.90;99.90
27619;DHT22;15039;50.830;4.730;2024-03-02T11:11:40;11.20;99.90
27619;DHT22;15039;50.830;4.730;2024-03-02T11:14:10;11.40;99.90
27619;DHT22;15039;50.830;4.730;2024-03-02T11:16:38;11.70;99.90
27619;DHT22;15039;50.830;4.730;2024-03-02T11:28:34;12.00;99.90
27619;DHT22;15039;50.830;4.730;2024-03-02T11:31:00;12.00;99.90
27619;DHT22;15039;50.830;4.730;2024-03-02T11:33:26;12.10;99.90
27619;DHT22;15039;50.830;4.730;2024-03-02T11:35:52;12.10;99.90
27619;DHT22;15039;50.830;4.730;2024-03-02T11:38:18;12.10;99.90
27619;DHT22;15039;50.830;4.730;2024-03-02T11:40:44;12.10;99.90
27619;DHT22;15039;50.830;4.730;2024-03-02T11:43:09;12.10;99.90
27619;DHT22;15039;50.830;4.730;2024-03-02T11:45:36;12.20;99.90
27619;DHT22;15039;50.830;4.730;2024-03-02T11:48:05;12.30;99.90
27619;DHT22;15039;50.830;4.730;2024-03-02T11:50:35;12.30;99.90
27619;DHT22;15039;50.830;4.730;2024-03-02T11:53:03;12.40;99.90
27619;DHT22;15039;50.830;4.730;2024-03-02T11:55:31;12.40;99.90
27619;DHT22;15039;50.830;4.730;2024-03-02T12:06:40;12.50;99.90
27619;DHT22;15039;50.830;4.730;2024-03-02T12:09:13;12.60;99.90
27619;DHT22;15039;50.830;4.730;2024-03-02T12:11:40;12.80;99.90
27619;DHT22;15039;50.830;4.730;2024-03-02T12:14:10;12.90;99.90
27619;DHT22;15039;50.830;4.730;2024-03-02T12:16:36;12.90;99.90
27619;DHT22;15039;50.830;4.730;2024-03-02T12:19:03;13.00;99.90
27619;DHT22;15039;50.830;4.730;2024-03-02T12:21:30;13.10;99.90
27619;DHT22;15039;50.830;4.730;2024-03-02T12:23:55;13.20;99.90
27619;DHT22;15039;50.830;4.730;2024-03-02T12:26:21;13.30;99.90
27619;DHT22;15039;50.830;4.730;2024-03-02T12:28:47;13.20;99.90
27619;DHT22;15039;50.830;4.730;2024-03-02T12:31:13;13.10;99.90
27619;DHT22;15039;50.830;4.730;2024-03-02T12:33:39;12.90;99.90
27619;DHT22;15039;50.830;4.730;2024-03-02T12:36:08;12.80;99.90
27619;DHT22;15039;50.830;4.730;2024-03-02T12:38:34;12.80;99.90
27619;DHT22;15039;50.830;4.730;2024-03-02T12:41:00;12.80;99.90
27619;DHT22;15039;50.830;4.730;2024-03-02T12:43:29;13.00;99.90
27619;DHT22;15039;50.830;4.730;2024-03-02T12:45:55;13.10;99.90
27619;DHT22;15039;50.830;4.730;2024-03-02T12:48:21;13.30;99.90
27619;DHT22;15039;50.830;4.730;2024-03-02T12:50:47;13.60;99.90
27619;DHT22;15039;50.830;4.730;2024-03-02T12:53:15;13.80;99.90
27619;DHT22;15039;50.830;4.730;2024-03-02T12:55:44;13.80;99.90
27619;DHT22;15039;50.830;4.730;2024-03-02T12:58:19;13.80;99.90
27619;DHT22;15039;50.830;4.730;2024-03-02T13:00:46;13.80;99.90
27619;DHT22;15039;50.830;4.730;2024-03-02T13:03:11;13.90;99.90
27619;DHT22;15039;50.830;4.730;2024-03-02T13:05:37;13.90;99.90
27619;DHT22;15039;50.830;4.730;2024-03-02T13:08:03;14.10;99.90
27619;DHT22;15039;50.830;4.730;2024-03-02T13:10:30;14.10;99.90
27619;DHT22;15039;50.830;4.730;2024-03-02T13:12:56;14.20;99.90
27619;DHT22;15039;50.830;4.730;2024-03-02T13:15:21;14.30;99.90
27619;DHT22;15039;50.830;4.730;2024-03-02T13:17:47;14.30;99.90
27619;DHT22;15039;50.830;4.730;2024-03-02T13:43:18;14.00;99.90
27619;DHT22;15039;50.830;4.730;2024-03-02T13:45:45;14.00;99.90
27619;DHT22;15039;50.830;4.730;2024-03-02T13:48:12;14.00;99.90
27619;DHT22;15039;50.830;4.730;2024-03-02T13:50:41;13.90;99.90
27619;DHT22;15039;50.830;4.730;2024-03-02T13:53:07;13.90;99.90
27619;DHT22;15039;50.830;4.730;2024-03-02T13:55:34;13.90;99.90
27619;DHT22;15039;50.830;4.730;2024-03-02T13:57:59;14.10;99.90
27619;DHT22;15039;50.830;4.730;2024-03-02T14:00:25;14.10;99.90
27619;DHT22;15039;50.830;4.730;2024-03-02T14:02:51;14.00;99.90
27619;DHT22;15039;50.830;4.730;2024-03-02T14:05:17;14.00;99.90
27619;DHT22;15039;50.830;4.730;2024-03-02T14:07:42;14.00;99.90
27619;DHT22;15039;50.830;4.730;2024-03-02T14:10:09;13.90;99.90
27619;DHT22;15039;50.830;4.730;2024-03-02T14:12:34;13.90;99.90
27619;DHT22;15039;50.830;4.730;2024-03-02T14:15:00;14.00;99.90
27619;DHT22;15039;50.830;4.730;2024-03-02T14:17:28;14.10;99.90
27619;DHT22;15039;50.830;4.730;2024-03-02T14:19:53;14.20;99.90
27619;DHT22;15039;50.830;4.730;2024-03-02T14:22:20;14.20;99.90
27619;DHT22;15039;50.830;4.730;2024-03-02T14:24:46;14.30;99.90
27619;DHT22;15039;50.830;4.730;2024-03-02T14:27:13;14.40;99.90
27619;DHT22;15039;50.830;4.730;2024-03-02T14:29:39;14.50;99.90
27619;DHT22;15039;50.830;4.730;2024-03-02T14:32:05;14.40;99.90
27619;DHT22;15039;50.830;4.730;2024-03-02T14:34:31;14.30;99.90
27619;DHT22;15039;50.830;4.730;2024-03-02T14:36:56;14.10;99.90
27619;DHT22;15039;50.830;4.730;2024-03-02T14:39:22;14.00;99.90
27619;DHT22;15039;50.830;4.730;2024-03-02T14:41:48;14.10;99.90
27619;DHT22;15039;50.830;4.730;2024-03-02T14:44:14;14.10;99.90
27619;DHT22;15039;50.830;4.730;2024-03-02T14:46:40;14.10;99.90
27619;DHT22;15039;50.830;4.730;2024-03-02T14:49:06;14.00;99.90
27619;DHT22;15039;50.830;4.730;2024-03-02T14:51:31;13.90;99.90
27619;DHT22;15039;50.830;4.730;2024-03-02T14:53:58;13.90;99.90
27619;DHT22;15039;50.830;4.730;2024-03-02T14:56:23;14.00;99.90
27619;DHT22;15039;50.830;4.730;2024-03-02T14:58:55;14.00;99.90
27619;DHT22;15039;50.830;4.730;2024-03-02T15:01:20;14.00;99.90
27619;DHT22;15039;50.830;4.730;2024-03-02T15:03:50;13.90;99.90
27619;DHT22;15039;50.830;4.730;2024-03-02T15:06:22;13.90;99.90
27619;DHT22;15039;50.830;4.730;2024-03-02T15:08:48;13.80;99.90
27619;DHT22;15039;50.830;4.730;2024-03-02T15:11:14;13.70;99.90
27619;DHT22;15039;50.830;4.730;2024-03-02T15:13:48;13.60;99.90
27619;DHT22;15039;50.830;4.730;2024-03-02T15:16:14;13.60;99.90
27619;DHT22;15039;50.830;4.730;2024-03-02T15:18:39;13.60;99.90
27619;DHT22;15039;50.830;4.730;2024-03-02T15:21:05;13.60;99.90
27619;DHT22;15039;50.830;4.730;2024-03-02T15:23:30;13.60;99.90
27619;DHT22;15039;50.830;4.730;2024-03-02T15:25:56;13.60;99.90
27619;DHT22;15039;50.830;4.730;2024-03-02T15:28:22;13.60;99.90
27619;DHT22;15039;50.830;4.730;2024-03-02T15:30:47;13.70;99.90
27619;DHT22;15039;50.830;4.730;2024-03-02T15:33:13;13.60;99.90
27619;DHT22;15039;50.830;4.730;2024-03-02T15:35:38;13.70;99.90
27619;DHT22;15039;50.830;4.730;2024-03-02T15:38:04;13.80;99.90
27619;DHT22;15039;50.830;4.730;2024-03-02T15:40:32;13.70;99.90
27619;DHT22;15039;50.830;4.730;2024-03-02T15:42:58;13.70;99.90
27619;DHT22;15039;50.830;4.730;2024-03-02T15:45:23;13.70;99.90
27619;DHT22;15039;50.830;4.730;2024-03-02T15:47:50;13.70;99.90
27619;DHT22;15039;50.830;4.730;2024-03-02T15:50:24;13.60;99.90
27619;DHT22;15039;50.830;4.730;2024-03-02T15:52:55;13.50;99.90
27619;DHT22;15039;50.830;4.730;2024-03-02T15:58:26;13.70;99.90
27619;DHT22;15039;50.830;4.730;2024-03-02T16:00:51;13.70;99.90
27619;DHT22;15039;50.830;4.730;2024-03-02T16:03:17;13.60;99.90
27619;DHT22;15039;50.830;4.730;2024-03-02T16:08:36;13.60;99.90
27619;DHT22;15039;50.830;4.730;2024-03-02T16:11:02;13.60;99.90
27619;DHT22;15039;50.830;4.730;2024-03-02T16:13:28;13.50;99.90
27619;DHT22;15039;50.830;4.730;2024-03-02T16:15:53;13.40;99.90
27619;DHT22;15039;50.830;4.730;2024-03-02T16:18:19;13.40;99.90
27619;DHT22;15039;50.830;4.730;2024-03-02T16:20:44;13.40;99.90
27619;DHT22;15039;50.830;4.730;2024-03-02T16:23:10;13.40;99.90
27619;DHT22;15039;50.830;4.730;2024-03-02T16:25:35;13.40;99.90
27619;DHT22;15039;50.830;4.730;2024-03-02T16:45:54;13.20;99.90
27619;DHT22;15039;50.830;4.730;2024-03-02T16:48:20;13.10;99.90
27619;DHT22;15039;50.830;4.730;2024-03-02T16:50:48;13.20;99.90
27619;DHT22;15039;50.830;4.730;2024-03-02T17:46:06;12.40;99.90
27619;DHT22;15039;50.830;4.730;2024-03-02T17:48:31;12.50;99.90
27619;DHT22;15039;50.830;4.730;2024-03-02T17:50:58;12.50;99.90
27619;DHT22;15039;50.830;4.730;2024-03-02T17:53:24;12.50;99.90
27619;DHT22;15039;50.830;4.730;2024-03-02T17:55:49;12.40;99.90
27619;DHT22;15039;50.830;4.730;2024-03-02T17:58:15;12.30;99.90
27619;DHT22;15039;50.830;4.730;2024-03-02T18:00:41;12.30;99.90
27619;DHT22;15039;50.830;4.730;2024-03-02T18:03:06;12.30;99.90
27619;DHT22;15039;50.830;4.730;2024-03-02T18:05:32;12.30;99.90
27619;DHT22;15039;50.830;4.730;2024-03-02T18:07:58;12.30;99.90
27619;DHT22;15039;50.830;4.730;2024-03-02T18:10:23;12.30;99.90
27619;DHT22;15039;50.830;4.730;2024-03-02T18:12:49;12.20;99.90
27619;DHT22;15039;50.830;4.730;2024-03-02T18:15:14;12.10;99.90
27619;DHT22;15039;50.830;4.730;2024-03-02T18:17:40;12.10;99.90
27619;DHT22;15039;50.830;4.730;2024-03-02T18:20:06;12.10;99.90
27619;DHT22;15039;50.830;4.730;2024-03-02T18:22:33;12.20;99.90
27619;DHT22;15039;50.830;4.730;2024-03-02T18:24:59;12.10;99.90
27619;DHT22;15039;50.830;4.730;2024-03-02T18:27:25;12.00;99.90
27619;DHT22;15039;50.830;4.730;2024-03-02T18:29:50;11.80;99.90
27619;DHT22;15039;50.830;4.730;2024-03-02T18:32:16;11.60;99.90
27619;DHT22;15039;50.830;4.730;2024-03-02T18:34:42;11.80;99.90
27619;DHT22;15039;50.830;4.730;2024-03-02T18:37:07;11.90;99.90
27619;DHT22;15039;50.830;4.730;2024-03-02T18:39:33;11.80;99.90
27619;DHT22;15039;50.830;4.730;2024-03-02T18:41:58;11.70;99.90
27619;DHT22;15039;50.830;4.730;2024-03-02T18:44:24;11.60;99.90
27619;DHT22;15039;50.830;4.730;2024-03-02T18:46:50;11.60;99.90
27619;DHT22;15039;50.830;4.730;2024-03-02T18:49:15;11.60;99.90
27619;DHT22;15039;50.830;4.730;2024-03-02T18:51:41;11.60;99.90
27619;DHT22;15039;50.830;4.730;2024-03-02T18:54:07;11.60;99.90
27619;DHT22;15039;50.830;4.730;2024-03-02T18:56:33;11.70;99.90
27619;DHT22;15039;50.830;4.730;2024-03-02T18:59:01;11.60;99.90
27619;DHT22;15039;50.830;4.730;2024-03-02T19:01:27;11.60;99.90
27619;DHT22;15039;50.830;4.730;2024-03-02T19:03:52;11.50;99.90
27619;DHT22;15039;50.830;4.730;2024-03-02T19:06:18;11.40;99.90
27619;DHT22;15039;50.830;4.730;2024-03-02T19:08:44;11.40;99.90
27619;DHT22;15039;50.830;4.730;2024-03-02T19:11:12;11.30;99.90
27619;DHT22;15039;50.830;4.730;2024-03-02T19:13:39;11.20;99.90
27619;DHT22;15039;50.830;4.730;2024-03-02T19:16:10;11.20;99.90
27619;DHT22;15039;50.830;4.730;2024-03-02T19:18:36;11.20;99.90
27619;DHT22;15039;50.830;4.730;2024-03-02T19:21:02;11.10;99.90
27619;DHT22;15039;50.830;4.730;2024-03-02T19:23:27;11.10;99.90
27619;DHT22;15039;50.830;4.730;2024-03-02T19:25:55;11.00;99.90
27619;DHT22;15039;50.830;4.730;2024-03-02T19:28:21;10.90;99.90
27619;DHT22;15039;50.830;4.730;2024-03-02T19:30:47;10.90;99.90
27619;DHT22;15039;50.830;4.730;2024-03-02T19:33:12;10.90;99.90
27619;DHT22;15039;50.830;4.730;2024-03-02T19:35:40;10.90;99.90
27619;DHT22;15039;50.830;4.730;2024-03-02T19:38:05;10.80;99.90
27619;DHT22;15039;50.830;4.730;2024-03-02T19:40:32;10.80;99.90
27619;DHT22;15039;50.830;4.730;2024-03-02T19:42:58;10.80;99.90
27619;DHT22;15039;50.830;4.730;2024-03-02T19:45:24;10.80;99.90
27619;DHT22;15039;50.830;4.730;2024-03-02T19:47:50;10.80;99.90
27619;DHT22;15039;50.830;4.730;2024-03-02T19:50:15;10.80;99.90
27619;DHT22;15039;50.830;4.730;2024-03-02T19:52:45;10.80;99.90
27619;DHT22;15039;50.830;4.730;2024-03-02T19:55:11;10.70;99.90
27619;DHT22;15039;50.830;4.730;2024-03-02T19:57:40;10.80;99.90
27619;DHT22;15039;50.830;4.730;2024-03-02T20:00:12;10.80;99.90
27619;DHT22;15039;50.830;4.730;2024-03-02T20:02:38;10.80;99.90
27619;DHT22;15039;50.830;4.730;2024-03-02T20:05:04;10.90;99.90
27619;DHT22;15039;50.830;4.730;2024-03-02T20:07:30;10.90;99.90
27619;DHT22;15039;50.830;4.730;2024-03-02T20:09:55;10.80;99.90
27619;DHT22;15039;50.830;4.730;2024-03-02T20:12:21;10.80;99.90
27619;DHT22;15039;50.830;4.730;2024-03-02T20:14:46;10.80;99.90
27619;DHT22;15039;50.830;4.730;2024-03-02T20:17:14;10.80;99.90
27619;DHT22;15039;50.830;4.730;2024-03-02T20:19:40;10.70;99.90
27619;DHT22;15039;50.830;4.730;2024-03-02T20:22:06;10.70;99.90
27619;DHT22;15039;50.830;4.730;2024-03-02T20:24:31;10.60;99.90
27619;DHT22;15039;50.830;4.730;2024-03-02T20:26:57;10.60;99.90
27619;DHT22;15039;50.830;4.730;2024-03-02T20:29:22;10.50;99.90
27619;DHT22;15039;50.830;4.730;2024-03-02T20:31:48;10.50;99.90
27619;DHT22;15039;50.830;4.730;2024-03-02T20:34:13;10.50;99.90
27619;DHT22;15039;50.830;4.730;2024-03-02T20:36:44;10.50;99.90
27619;DHT22;15039;50.830;4.730;2024-03-02T20:39:10;10.50;99.90
27619;DHT22;15039;50.830;4.730;2024-03-02T20:41:36;10.50;99.90
27619;DHT22;15039;50.830;4.730;2024-03-02T20:44:04;10.50;99.90
27619;DHT22;15039;50.830;4.730;2024-03-02T20:46:30;10.50;99.90
27619;DHT22;15039;50.830;4.730;2024-03-02T20:48:55;10.60;99.90
27619;DHT22;15039;50.830;4.730;2024-03-02T20:51:22;10.60;99.90
27619;DHT22;15039;50.830;4.730;2024-03-02T20:53:54;10.60;99.90
27619;DHT22;15039;50.830;4.730;2024-03-02T20:56:20;10.50;99.90
27619;DHT22;15039;50.830;4.730;2024-03-02T20:58:45;10.60;99.90
27619;DHT22;15039;50.830;4.730;2024-03-02T21:01:11;10.50;99.90
27619;DHT22;15039;50.830;4.730;2024-03-02T21:03:36;10.50;99.90
27619;DHT22;15039;50.830;4.730;2024-03-02T21:06:04;10.40;99.90
27619;DHT22;15039;50.830;4.730;2024-03-02T21:08:29;10.40;99.90
27619;DHT22;15039;50.830;4.730;2024-03-02T21:13:30;10.50;99.90
27619;DHT22;15039;50.830;4.730;2024-03-02T21:15:56;10.50;99.90
27619;DHT22;15039;50.830;4.730;2024-03-02T21:20:58;10.50;99.90
27619;DHT22;15039;50.830;4.730;2024-03-02T21:23:45;10.40;99.90
27619;DHT22;15039;50.830;4.730;2024-03-02T21:35:23;10.40;99.90
27619;DHT22;15039;50.830;4.730;2024-03-02T21:37:48;10.50;99.90
27619;DHT22;15039;50.830;4.730;2024-03-02T21:40:17;10.60;99.90
27619;DHT22;15039;50.830;4.730;2024-03-02T21:54:49;10.70;99.90
27619;DHT22;15039;50.830;4.730;2024-03-02T21:57:18;10.70;99.90
27619;DHT22;15039;50.830;4.730;2024-03-02T22:09:06;10.90;99.90
27619;DHT22;15039;50.830;4.730;2024-03-02T22:11:31;11.00;99.90
27619;DHT22;15039;50.830;4.730;2024-03-02T22:13:57;10.90;99.90
27619;DHT22;15039;50.830;4.730;2024-03-02T22:16:25;10.90;99.90
27619;DHT22;15039;50.830;4.730;2024-03-02T22:18:52;10.90;99.90
27619;DHT22;15039;50.830;4.730;2024-03-02T22:21:17;10.90;99.90
27619;DHT22;15039;50.830;4.730;2024-03-02T22:23:43;11.00;99.90
27619;DHT22;15039;50.830;4.730;2024-03-02T22:26:08;11.00;99.90
27619;DHT22;15039;50.830;4.730;2024-03-02T22:33:45;11.10;99.90
27619;DHT22;15039;50.830;4.730;2024-03-02T22:36:10;11.20;99.90
27619;DHT22;15039;50.830;4.730;2024-03-02T22:38:36;11.20;99.90
27619;DHT22;15039;50.830;4.730;2024-03-02T22:41:03;11.20;99.90
27619;DHT22;15039;50.830;4.730;2024-03-02T22:43:29;11.10;99.90
27619;DHT22;15039;50.830;4.730;2024-03-02T22:45:55;11.10;99.90
27619;DHT22;15039;50.830;4.730;2024-03-02T22:48:21;11.10;99.90
27619;DHT22;15039;50.830;4.730;2024-03-02T22:50:46;11.00;99.90
27619;DHT22;15039;50.830;4.730;2024-03-02T22:53:12;11.00;99.90
27619;DHT22;15039;50.830;4.730;2024-03-02T22:55:37;11.00;99.90
27619;DHT22;15039;50.830;4.730;2024-03-02T22:58:04;10.90;99.90